sensor_id;sensor_type;location;lat;lon;timestamp;pressure;altitude;pressure_sealevel;temperature;humidity
5988;BME280;3021;51.000;6.980;2023-01-26T00:00:23;66291.22;;;-0.05;100.00
5988;BME280;3021;51.000;6.980;2023-01-26T00:02:49;66287.63;;;-0.11;100.00
5988;BME280;3021;51.000;6.980;2023-01-26T00:05:14;66280.00;;;-0.20;100.00
5988;BME280;3021;51.000;6.980;2023-01-26T00:07:39;66274.84;;;-0.25;100.00
5988;BME280;3021;51.000;6.980;2023-01-26T00:10:10;66271.00;;;-0.26;100.00
5988;BME280;3021;51.000;6.980;2023-01-26T00:12:35;66271.00;;;-0.26;100.00
5988;BME280;3021;51.000;6.980;2023-01-26T00:15:00;66274.63;;;-0.20;100.00
5988;BME280;3021;51.000;6.980;2023-01-26T00:17:26;66283.22;;;-0.12;100.00
5988;BME280;3021;51.000;6.980;2023-01-26T00:19:52;66279.03;;;-0.19;100.00
5988;BME280;3021;51.000;6.980;2023-01-26T00:22:18;66274.03;;;-0.21;100.00
5988;BME280;3021;51.000;6.980;2023-01-26T00:24:44;66277.47;;;-0.18;100.00
5988;BME280;3021;51.000;6.980;2023-01-26T00:27:09;66275.03;;;-0.22;100.00
5988;BME280;3021;51.000;6.980;2023-01-26T00:29:34;66269.16;;;-0.30;100.00
5988;BME280;3021;51.000;6.980;2023-01-26T00:31:59;66264.72;;;-0.31;100.00
5988;BME280;3021;51.000;6.980;2023-01-26T00:34:25;66271.00;;;-0.26;100.00
5988;BME280;3021;51.000;6.980;2023-01-26T00:36:50;66276.75;;;-0.21;100.00
5988;BME280;3021;51.000;6.980;2023-01-26T00:39:15;66278.06;;;-0.17;100.00
5988;BME280;3021;51.000;6.980;2023-01-26T00:41:41;66284.75;;;-0.13;100.00
5988;BME280;3021;51.000;6.980;2023-01-26T00:44:25;66284.34;;;-0.11;100.00
5988;BME280;3021;51.000;6.980;2023-01-26T00:46:50;66276.75;;;-0.21;100.00
5988;BME280;3021;51.000;6.980;2023-01-26T00:49:15;66263.75;;;-0.30;100.00
5988;BME280;3021;51.000;6.980;2023-01-26T00:51:41;66274.47;;;-0.23;100.00
5988;BME280;3021;51.000;6.980;2023-01-26T00:54:06;66271.59;;;-0.25;100.00
5988;BME280;3021;51.000;6.980;2023-01-26T00:56:31;66277.72;;;-0.22;100.00
5988;BME280;3021;51.000;6.980;2023-01-26T00:58:57;66276.19;;;-0.21;100.00
5988;BME280;3021;51.000;6.980;2023-01-26T01:01:22;66278.63;;;-0.16;100.00
5988;BME280;3021;51.000;6.980;2023-01-26T01:03:47;66289.75;;;-0.11;100.00
5988;BME280;3021;51.000;6.980;2023-01-26T01:06:14;66283.47;;;-0.17;100.00
5988;BME280;3021;51.000;6.980;2023-01-26T01:08:39;66280.59;;;-0.20;100.00
5988;BME280;3021;51.000;6.980;2023-01-26T01:11:08;66281.16;;;-0.19;100.00
5988;BME280;3021;51.000;6.980;2023-01-26T01:13:33;66281.75;;;-0.19;100.00
5988;BME280;3021;51.000;6.980;2023-01-26T01:15:59;66267.59;;;-0.29;100.00
5988;BME280;3021;51.000;6.980;2023-01-26T01:18:24;66268.72;;;-0.28;100.00
5988;BME280;3021;51.000;6.980;2023-01-26T01:20:49;66261.28;;;-0.35;100.00
5988;BME280;3021;51.000;6.980;2023-01-26T01:23:15;66269.53;;;-0.32;100.00
5988;BME280;3021;51.000;6.980;2023-01-26T01:25:40;66274.47;;;-0.23;100.00
5988;BME280;3021;51.000;6.980;2023-01-26T01:28:05;66270.06;;;-0.24;100.00
5988;BME280;3021;51.000;6.980;2023-01-26T01:30:31;66275.03;;;-0.22;100.00
5988;BME280;3021;51.000;6.980;2023-01-26T01:32:56;66273.88;;;-0.23;100.00
5988;BME280;3021;51.000;6.980;2023-01-26T01:35:21;66274.47;;;-0.23;100.00
5988;BME280;3021;51.000;6.980;2023-01-26T01:37:47;66272.00;;;-0.27;100.00
5988;BME280;3021;51.000;6.980;2023-01-26T01:40:12;66272.16;;;-0.25;100.00
5988;BME280;3021;51.000;6.980;2023-01-26T01:42:45;66280.75;;;-0.17;100.00
5988;BME280;3021;51.000;6.980;2023-01-26T01:48:01;66285.31;;;-0.13;100.00
5988;BME280;3021;51.000;6.980;2023-01-26T01:50:27;66283.59;;;-0.14;100.00
5988;BME280;3021;51.000;6.980;2023-01-26T01:52:55;66293.19;;;-0.08;100.00
5988;BME280;3021;51.000;6.980;2023-01-26T01:55:20;66287.63;;;-0.11;100.00
5988;BME280;3021;51.000;6.980;2023-01-26T01:57:51;66289.34;;;-0.09;100.00
5988;BME280;3021;51.000;6.980;2023-01-26T02:00:20;66287.63;;;-0.11;100.00
5988;BME280;3021;51.000;6.980;2023-01-26T02:02:59;66288.19;;;-0.10;100.00
5988;BME280;3021;51.000;6.980;2023-01-26T02:06:05;66297.19;;;-0.05;100.00
5988;BME280;3021;51.000;6.980;2023-01-26T02:08:36;66301.94;;;0.02;100.00
5988;BME280;3021;51.000;6.980;2023-01-26T02:11:09;66281.31;;;-0.16;100.00
5988;BME280;3021;51.000;6.980;2023-01-26T02:13:36;66274.63;;;-0.20;100.00
5988;BME280;3021;51.000;6.980;2023-01-26T02:16:01;66278.28;;;-0.22;100.00
5988;BME280;3021;51.000;6.980;2023-01-26T02:18:27;66280.75;;;-0.17;100.00
5988;BME280;3021;51.000;6.980;2023-01-26T02:20:56;66274.63;;;-0.20;100.00
5988;BME280;3021;51.000;6.980;2023-01-26T02:26:12;66267.59;;;-0.29;100.00
5988;BME280;3021;51.000;6.980;2023-01-26T02:28:39;66268.16;;;-0.28;100.00
5988;BME280;3021;51.000;6.980;2023-01-26T02:31:05;66275.03;;;-0.22;100.00
5988;BME280;3021;51.000;6.980;2023-01-26T02:33:31;66287.13;;;-0.19;100.00
5988;BME280;3021;51.000;6.980;2023-01-26T02:35:57;66284.19;;;-0.14;100.00
5988;BME280;3021;51.000;6.980;2023-01-26T02:38:26;66285.31;;;-0.13;100.00
5988;BME280;3021;51.000;6.980;2023-01-26T02:43:23;66278.28;;;-0.22;100.00
5988;BME280;3021;51.000;6.980;2023-01-26T02:45:49;66270.28;;;-0.29;100.00
5988;BME280;3021;51.000;6.980;2023-01-26T02:48:14;66264.16;;;-0.32;100.00
5988;BME280;3021;51.000;6.980;2023-01-26T02:50:59;66262.44;;;-0.33;100.00
5988;BME280;3021;51.000;6.980;2023-01-26T02:53:25;66261.88;;;-0.34;100.00
5988;BME280;3021;51.000;6.980;2023-01-26T02:55:50;66256.31;;;-0.37;100.00
5988;BME280;3021;51.000;6.980;2023-01-26T02:58:16;66259.56;;;-0.36;100.00
5988;BME280;3021;51.000;6.980;2023-01-26T03:00:41;66259.97;;;-0.38;100.00
5988;BME280;3021;51.000;6.980;2023-01-26T03:03:12;66253.44;;;-0.39;100.00
5988;BME280;3021;51.000;6.980;2023-01-26T03:05:38;66247.75;;;-0.44;100.00
5988;BME280;3021;51.000;6.980;2023-01-26T03:08:03;66251.56;;;-0.43;100.00
5988;BME280;3021;51.000;6.980;2023-01-26T03:10:30;66248.88;;;-0.43;100.00
5988;BME280;3021;51.000;6.980;2023-01-26T03:12:55;66257.13;;;-0.41;100.00
5988;BME280;3021;51.000;6.980;2023-01-26T03:15:21;66257.28;;;-0.38;100.00
5988;BME280;3021;51.000;6.980;2023-01-26T03:18:08;66256.56;;;-0.41;100.00
5988;BME280;3021;51.000;6.980;2023-01-26T03:21:01;66249.44;;;-0.43;100.00
5988;BME280;3021;51.000;6.980;2023-01-26T03:23:46;66254.25;;;-0.43;100.00
5988;BME280;3021;51.000;6.980;2023-01-26T03:26:30;66254.44;;;-0.41;100.00
5988;BME280;3021;51.000;6.980;2023-01-26T03:29:15;66258.44;;;-0.37;100.00
5988;BME280;3021;51.000;6.980;2023-01-26T03:31:40;66260.72;;;-0.35;100.00
5988;BME280;3021;51.000;6.980;2023-01-26T03:34:05;66259.75;;;-0.33;100.00
5988;BME280;3021;51.000;6.980;2023-01-26T03:36:31;66266.44;;;-0.30;100.00
5988;BME280;3021;51.000;6.980;2023-01-26T03:38:56;66266.84;;;-0.32;100.00
5988;BME280;3021;51.000;6.980;2023-01-26T03:41:21;66267.44;;;-0.31;100.00
5988;BME280;3021;51.000;6.980;2023-01-26T03:44:05;66265.13;;;-0.33;100.00
5988;BME280;3021;51.000;6.980;2023-01-26T03:46:49;66254.00;;;-0.39;100.00
5988;BME280;3021;51.000;6.980;2023-01-26T03:49:33;66257.13;;;-0.41;100.00
5988;BME280;3021;51.000;6.980;2023-01-26T03:52:18;66248.69;;;-0.46;100.00
5988;BME280;3021;51.000;6.980;2023-01-26T03:55:02;66244.69;;;-0.49;100.00
5988;BME280;3021;51.000;6.980;2023-01-26T03:57:46;66240.69;;;-0.53;100.00
5988;BME280;3021;51.000;6.980;2023-01-26T04:00:12;66240.69;;;-0.53;100.00
5988;BME280;3021;51.000;6.980;2023-01-26T04:02:39;66245.25;;;-0.49;100.00
5988;BME280;3021;51.000;6.980;2023-01-26T04:05:23;66241.28;;;-0.53;100.00
5988;BME280;3021;51.000;6.980;2023-01-26T04:08:07;66246.41;;;-0.48;100.00
5988;BME280;3021;51.000;6.980;2023-01-26T04:10:45;66246.59;;;-0.45;100.00
5988;BME280;3021;51.000;6.980;2023-01-26T04:13:10;66257.13;;;-0.41;100.00
5988;BME280;3021;51.000;6.980;2023-01-26T04:15:54;66254.44;;;-0.41;100.00
5988;BME280;3021;51.000;6.980;2023-01-26T04:18:38;66257.47;;;-0.36;100.00
5988;BME280;3021;51.000;6.980;2023-01-26T04:21:22;66262.25;;;-0.36;100.00
5988;BME280;3021;51.000;6.980;2023-01-26T04:24:00;66258.84;;;-0.39;100.00
5988;BME280;3021;51.000;6.980;2023-01-26T04:26:30;66263.59;;;-0.32;100.00
5988;BME280;3021;51.000;6.980;2023-01-26T04:29:04;66263.00;;;-0.33;100.00
5988;BME280;3021;51.000;6.980;2023-01-26T04:31:30;66266.28;;;-0.32;100.00
5988;BME280;3021;51.000;6.980;2023-01-26T04:33:57;66261.88;;;-0.34;100.00
5988;BME280;3021;51.000;6.980;2023-01-26T04:36:23;66262.44;;;-0.33;100.00
5988;BME280;3021;51.000;6.980;2023-01-26T04:38:48;66268.16;;;-0.28;100.00
5988;BME280;3021;51.000;6.980;2023-01-26T04:41:14;66270.84;;;-0.28;100.00
5988;BME280;3021;51.000;6.980;2023-01-26T04:43:40;66266.44;;;-0.30;100.00
5988;BME280;3021;51.000;6.980;2023-01-26T04:46:06;66269.47;;;-0.25;100.00
5988;BME280;3021;51.000;6.980;2023-01-26T04:48:33;66277.00;;;-0.25;100.00
5988;BME280;3021;51.000;6.980;2023-01-26T04:51:08;66272.75;;;-0.24;100.00
5988;BME280;3021;51.000;6.980;2023-01-26T04:53:33;66268.72;;;-0.28;100.00
5988;BME280;3021;51.000;6.980;2023-01-26T04:55:59;66266.59;;;-0.27;100.00
5988;BME280;3021;51.000;6.980;2023-01-26T04:58:25;66270.28;;;-0.29;100.00
5988;BME280;3021;51.000;6.980;2023-01-26T05:00:54;66276.19;;;-0.21;100.00
5988;BME280;3021;51.000;6.980;2023-01-26T05:03:21;66278.63;;;-0.16;100.00
5988;BME280;3021;51.000;6.980;2023-01-26T05:05:48;66276.75;;;-0.21;100.00
5988;BME280;3021;51.000;6.980;2023-01-26T05:08:14;66272.16;;;-0.25;100.00
5988;BME280;3021;51.000;6.980;2023-01-26T05:10:40;66263.00;;;-0.33;100.00
5988;BME280;3021;51.000;6.980;2023-01-26T05:13:06;66265.13;;;-0.33;100.00
5988;BME280;3021;51.000;6.980;2023-01-26T05:15:32;66256.13;;;-0.39;100.00
5988;BME280;3021;51.000;6.980;2023-01-26T05:17:57;66253.28;;;-0.42;100.00
5988;BME280;3021;51.000;6.980;2023-01-26T05:20:24;66247.97;;;-0.49;100.00
5988;BME280;3021;51.000;6.980;2023-01-26T05:22:49;66239.56;;;-0.54;100.00
5988;BME280;3021;51.000;6.980;2023-01-26T05:25:15;66243.72;;;-0.48;100.00
5988;BME280;3021;51.000;6.980;2023-01-26T05:27:40;66230.22;;;-0.65;100.00
5988;BME280;3021;51.000;6.980;2023-01-26T05:30:06;66227.38;;;-0.67;100.00
5988;BME280;3021;51.000;6.980;2023-01-26T05:32:31;66225.25;;;-0.67;100.00
5988;BME280;3021;51.000;6.980;2023-01-26T05:34:57;66236.13;;;-0.57;100.00
5988;BME280;3021;51.000;6.980;2023-01-26T05:37:27;66238.81;;;-0.57;100.00
5988;BME280;3021;51.000;6.980;2023-01-26T05:39:52;66238.41;;;-0.55;100.00
5988;BME280;3021;51.000;6.980;2023-01-26T05:42:18;66238.97;;;-0.55;100.00
5988;BME280;3021;51.000;6.980;2023-01-26T05:44:43;66238.00;;;-0.53;100.00
5988;BME280;3021;51.000;6.980;2023-01-26T05:47:09;66237.84;;;-0.56;100.00
5988;BME280;3021;51.000;6.980;2023-01-26T05:49:34;66242.56;;;-0.49;100.00
5988;BME280;3021;51.000;6.980;2023-01-26T05:52:09;66255.56;;;-0.40;100.00
5988;BME280;3021;51.000;6.980;2023-01-26T05:54:35;66256.31;;;-0.37;100.00
5988;BME280;3021;51.000;6.980;2023-01-26T05:57:01;66257.28;;;-0.38;100.00
5988;BME280;3021;51.000;6.980;2023-01-26T05:59:26;66259.00;;;-0.37;100.00
5988;BME280;3021;51.000;6.980;2023-01-26T06:01:52;66246.00;;;-0.46;100.00
5988;BME280;3021;51.000;6.980;2023-01-26T06:04:18;66252.88;;;-0.40;100.00
5988;BME280;3021;51.000;6.980;2023-01-26T06:06:43;66255.56;;;-0.40;100.00
5988;BME280;3021;51.000;6.980;2023-01-26T06:09:09;66243.56;;;-0.50;100.00
5988;BME280;3021;51.000;6.980;2023-01-26T06:11:35;66245.44;;;-0.46;100.00
5988;BME280;3021;51.000;6.980;2023-01-26T06:14:00;66245.25;;;-0.49;100.00
5988;BME280;3021;51.000;6.980;2023-01-26T06:16:26;66255.97;;;-0.42;100.00
5988;BME280;3021;51.000;6.980;2023-01-26T06:18:51;66262.84;;;-0.36;100.00
5988;BME280;3021;51.000;6.980;2023-01-26T06:21:17;66262.03;;;-0.31;100.00
5988;BME280;3021;51.000;6.980;2023-01-26T06:23:42;66267.00;;;-0.29;100.00
5988;BME280;3021;51.000;6.980;2023-01-26T06:26:08;66265.88;;;-0.30;100.00
5988;BME280;3021;51.000;6.980;2023-01-26T06:28:33;66272.56;;;-0.27;100.00
5988;BME280;3021;51.000;6.980;2023-01-26T06:31:05;66275.59;;;-0.22;100.00
5988;BME280;3021;51.000;6.980;2023-01-26T06:33:31;66271.00;;;-0.26;100.00
5988;BME280;3021;51.000;6.980;2023-01-26T06:36:08;66273.31;;;-0.24;100.00
5988;BME280;3021;51.000;6.980;2023-01-26T06:38:34;66262.03;;;-0.31;100.00
5988;BME280;3021;51.000;6.980;2023-01-26T06:41:01;66273.31;;;-0.24;100.00
5988;BME280;3021;51.000;6.980;2023-01-26T06:43:30;66272.34;;;-0.22;100.00
5988;BME280;3021;51.000;6.980;2023-01-26T06:45:56;66279.59;;;-0.18;100.00
5988;BME280;3021;51.000;6.980;2023-01-26T06:48:25;66279.44;;;-0.21;100.00
5988;BME280;3021;51.000;6.980;2023-01-26T06:50:52;66280.34;;;-0.15;100.00
5988;BME280;3021;51.000;6.980;2023-01-26T06:55:49;66293.91;;;-0.05;100.00
5988;BME280;3021;51.000;6.980;2023-01-26T06:58:16;66296.94;;;0.00;100.00
5988;BME280;3021;51.000;6.980;2023-01-26T07:00:41;66298.66;;;0.02;100.00
5988;BME280;3021;51.000;6.980;2023-01-26T07:03:08;66300.78;;;0.01;100.00
5988;BME280;3021;51.000;6.980;2023-01-26T07:05:34;66304.63;;;0.02;100.00
5988;BME280;3021;51.000;6.980;2023-01-26T07:07:59;66296.94;;;0.00;100.00
5988;BME280;3021;51.000;6.980;2023-01-26T07:10:26;66302.09;;;0.05;100.00
5988;BME280;3021;51.000;6.980;2023-01-26T07:12:51;66302.66;;;0.05;100.00
5988;BME280;3021;51.000;6.980;2023-01-26T07:15:17;66307.06;;;0.07;100.00
5988;BME280;3021;51.000;6.980;2023-01-26T07:17:42;66303.66;;;0.04;100.00
5988;BME280;3021;51.000;6.980;2023-01-26T07:20:08;66303.88;;;-0.01;100.00
5988;BME280;3021;51.000;6.980;2023-01-26T07:22:34;66298.09;;;0.01;100.00
5988;BME280;3021;51.000;6.980;2023-01-26T07:24:59;66303.66;;;0.04;100.00
5988;BME280;3021;51.000;6.980;2023-01-26T07:27:24;66306.34;;;0.04;100.00
5988;BME280;3021;51.000;6.980;2023-01-26T07:29:50;66305.94;;;0.06;100.00
5988;BME280;3021;51.000;6.980;2023-01-26T07:32:15;66307.81;;;0.10;100.00
5988;BME280;3021;51.000;6.980;2023-01-26T07:34:41;66310.13;;;0.12;100.00
5988;BME280;3021;51.000;6.980;2023-01-26T07:37:06;66313.97;;;0.13;100.00
5988;BME280;3021;51.000;6.980;2023-01-26T07:39:31;66309.94;;;0.09;100.00
5988;BME280;3021;51.000;6.980;2023-01-26T07:41:56;66309.53;;;0.11;100.00
5988;BME280;3021;51.000;6.980;2023-01-26T07:44:22;66309.94;;;0.09;100.00
5988;BME280;3021;51.000;6.980;2023-01-26T07:46:47;66308.41;;;0.10;100.00
5988;BME280;3021;51.000;6.980;2023-01-26T07:49:12;66297.50;;;0.01;100.00
5988;BME280;3021;51.000;6.980;2023-01-26T07:51:38;66301.50;;;0.04;100.00
5988;BME280;3021;51.000;6.980;2023-01-26T07:54:09;66307.66;;;0.07;100.00
5988;BME280;3021;51.000;6.980;2023-01-26T07:56:35;66310.13;;;0.12;100.00
5988;BME280;3021;51.000;6.980;2023-01-26T07:59:01;66321.81;;;0.17;100.00
5988;BME280;3021;51.000;6.980;2023-01-26T08:01:26;66317.97;;;0.16;100.00
5988;BME280;3021;51.000;6.980;2023-01-26T08:03:52;66317.97;;;0.16;100.00
5988;BME280;3021;51.000;6.980;2023-01-26T08:06:20;66319.50;;;0.15;100.00
5988;BME280;3021;51.000;6.980;2023-01-26T08:08:47;66300.94;;;0.04;100.00
5988;BME280;3021;51.000;6.980;2023-01-26T08:11:18;66304.22;;;0.04;100.00
5988;BME280;3021;51.000;6.980;2023-01-26T08:13:44;66310.50;;;0.10;100.00
5988;BME280;3021;51.000;6.980;2023-01-26T08:16:10;66311.09;;;0.10;100.00
5988;BME280;3021;51.000;6.980;2023-01-26T08:18:43;66312.97;;;0.14;100.00
5988;BME280;3021;51.000;6.980;2023-01-26T08:21:09;66330.38;;;0.25;100.00
5988;BME280;3021;51.000;6.980;2023-01-26T08:23:35;66325.56;;;0.26;100.00
5988;BME280;3021;51.000;6.980;2023-01-26T08:26:03;66333.41;;;0.30;100.00
5988;BME280;3021;51.000;6.980;2023-01-26T08:28:28;66341.84;;;0.36;100.00
5988;BME280;3021;51.000;6.980;2023-01-26T08:30:54;66339.88;;;0.39;100.00
5988;BME280;3021;51.000;6.980;2023-01-26T08:33:20;66343.53;;;0.37;100.00
5988;BME280;3021;51.000;6.980;2023-01-26T08:35:45;66342.59;;;0.39;100.00
5988;BME280;3021;51.000;6.980;2023-01-26T08:38:10;66345.44;;;0.41;100.00
5988;BME280;3021;51.000;6.980;2023-01-26T08:40:36;66339.13;;;0.36;100.00
5988;BME280;3021;51.000;6.980;2023-01-26T08:43:02;66348.31;;;0.44;100.00
5988;BME280;3021;51.000;6.980;2023-01-26T08:45:28;66339.72;;;0.36;100.00
5988;BME280;3021;51.000;6.980;2023-01-26T08:47:53;66343.16;;;0.39;100.00
5988;BME280;3021;51.000;6.980;2023-01-26T08:50:19;66340.28;;;0.37;100.00
5988;BME280;3021;51.000;6.980;2023-01-26T08:52:44;66333.59;;;0.33;100.00
5988;BME280;3021;51.000;6.980;2023-01-26T08:55:10;66342.41;;;0.36;100.00
5988;BME280;3021;51.000;6.980;2023-01-26T08:57:35;66344.31;;;0.40;100.00
5988;BME280;3021;51.000;6.980;2023-01-26T09:00:01;66346.34;;;0.47;100.00
5988;BME280;3021;51.000;6.980;2023-01-26T09:02:26;66351.91;;;0.49;100.00
5988;BME280;3021;51.000;6.980;2023-01-26T09:04:51;66362.63;;;0.57;100.00
5988;BME280;3021;51.000;6.980;2023-01-26T09:07:17;66359.75;;;0.54;100.00
5988;BME280;3021;51.000;6.980;2023-01-26T09:09:42;66364.34;;;0.58;100.00
5988;BME280;3021;51.000;6.980;2023-01-26T09:12:07;66370.63;;;0.64;100.00
5988;BME280;3021;51.000;6.980;2023-01-26T09:14:33;66376.38;;;0.69;100.00
5988;BME280;3021;51.000;6.980;2023-01-26T09:16:58;66379.81;;;0.72;100.00
5988;BME280;3021;51.000;6.980;2023-01-26T09:19:23;66373.09;;;0.68;100.00
5988;BME280;3021;51.000;6.980;2023-01-26T09:21:52;66379.97;;;0.75;100.00
5988;BME280;3021;51.000;6.980;2023-01-26T09:24:19;66367.94;;;0.64;100.00
5988;BME280;3021;51.000;6.980;2023-01-26T09:26:44;66380.53;;;0.75;100.00
5988;BME280;3021;51.000;6.980;2023-01-26T09:29:10;66385.38;;;0.75;100.00
5988;BME280;3021;51.000;6.980;2023-01-26T09:31:35;66393.56;;;0.84;100.00
5988;BME280;3021;51.000;6.980;2023-01-26T09:34:00;66406.31;;;0.98;100.00
5988;BME280;3021;51.000;6.980;2023-01-26T09:36:25;66417.63;;;1.06;100.00
5988;BME280;3021;51.000;6.980;2023-01-26T09:38:51;66418.75;;;1.07;100.00
5988;BME280;3021;51.000;6.980;2023-01-26T09:43:56;66432.50;;;1.19;100.00
5988;BME280;3021;51.000;6.980;2023-01-26T09:46:28;66436.69;;;1.26;100.00
5988;BME280;3021;51.000;6.980;2023-01-26T09:49:09;66442.25;;;1.28;100.00
5988;BME280;3021;51.000;6.980;2023-01-26T09:51:42;66440.53;;;1.27;100.00
5988;BME280;3021;51.000;6.980;2023-01-26T09:56:55;66418.34;;;1.09;100.00
5988;BME280;3021;51.000;6.980;2023-01-26T09:59:33;66416.47;;;1.05;100.00
5988;BME280;3021;51.000;6.980;2023-01-26T10:02:19;66424.06;;;1.14;100.00
5988;BME280;3021;51.000;6.980;2023-01-26T10:04:50;66440.53;;;1.27;100.00
5988;BME280;3021;51.000;6.980;2023-01-26T10:07:19;66442.84;;;1.29;100.00
5988;BME280;3021;51.000;6.980;2023-01-26T10:09:48;66439.56;;;1.28;100.00
5988;BME280;3021;51.000;6.980;2023-01-26T10:12:35;66427.53;;;1.17;100.00
5988;BME280;3021;51.000;6.980;2023-01-26T10:15:03;66441.69;;;1.28;100.00
5988;BME280;3021;51.000;6.980;2023-01-26T10:17:35;66444.13;;;1.32;100.00
5988;BME280;3021;51.000;6.980;2023-01-26T10:20:06;66446.84;;;1.32;100.00
5988;BME280;3021;51.000;6.980;2023-01-26T10:22:41;66448.31;;;1.38;100.00
5988;BME280;3021;51.000;6.980;2023-01-26T10:25:18;66466.50;;;1.52;100.00
5988;BME280;3021;51.000;6.980;2023-01-26T10:27:44;66468.38;;;1.57;100.00
5988;BME280;3021;51.000;6.980;2023-01-26T10:30:17;66469.94;;;1.55;100.00
5988;BME280;3021;51.000;6.980;2023-01-26T10:32:45;66479.91;;;1.60;100.00
5988;BME280;3021;51.000;6.980;2023-01-26T10:35:23;66479.53;;;1.62;100.00
5988;BME280;3021;51.000;6.980;2023-01-26T10:37:49;66457.72;;;1.42;100.00
5988;BME280;3021;51.000;6.980;2023-01-26T10:40:18;66459.19;;;1.48;100.00
5988;BME280;3021;51.000;6.980;2023-01-26T10:42:56;66452.75;;;1.40;100.00
5988;BME280;3021;51.000;6.980;2023-01-26T10:45:28;66465.75;;;1.49;100.00
5988;BME280;3021;51.000;6.980;2023-01-26T10:50:26;66480.81;;;1.65;100.00
5988;BME280;3021;51.000;6.980;2023-01-26T10:53:02;66489.81;;;1.71;100.00
5988;BME280;3021;51.000;6.980;2023-01-26T10:55:30;66480.09;;;1.62;100.00
5988;BME280;3021;51.000;6.980;2023-01-26T10:57:55;66477.94;;;1.63;100.00
5988;BME280;3021;51.000;6.980;2023-01-26T11:00:32;66468.78;;;1.54;100.00
5988;BME280;3021;51.000;6.980;2023-01-26T11:03:04;66460.19;;;1.47;100.00
5988;BME280;3021;51.000;6.980;2023-01-26T11:05:30;66473.94;;;1.59;100.00
5988;BME280;3021;51.000;6.980;2023-01-26T11:07:56;66477.22;;;1.60;100.00
5988;BME280;3021;51.000;6.980;2023-01-26T11:13:07;66487.69;;;1.71;100.00
5988;BME280;3021;51.000;6.980;2023-01-26T11:15:37;66496.31;;;1.79;100.00
5988;BME280;3021;51.000;6.980;2023-01-26T11:18:17;66484.84;;;1.69;100.00
5988;BME280;3021;51.000;6.980;2023-01-26T11:20:49;66480.25;;;1.65;100.00
5988;BME280;3021;51.000;6.980;2023-01-26T11:37:28;66538.16;;;2.17;100.00
5988;BME280;3021;51.000;6.980;2023-01-26T11:42:48;66568.56;;;2.44;100.00
5988;BME280;3021;51.000;6.980;2023-01-26T11:45:45;66573.88;;;2.51;100.00
5988;BME280;3021;51.000;6.980;2023-01-26T11:51:59;66556.94;;;2.31;100.00
5988;BME280;3021;51.000;6.980;2023-01-26T11:59:45;66512.19;;;1.91;100.00
5988;BME280;3021;51.000;6.980;2023-01-26T12:02:30;66510.06;;;1.92;100.00
5988;BME280;3021;51.000;6.980;2023-01-26T12:04:59;66490.25;;;1.69;100.00
5988;BME280;3021;51.000;6.980;2023-01-26T12:10:16;66498.03;;;1.81;100.00
5988;BME280;3021;51.000;6.980;2023-01-26T12:12:47;66495.16;;;1.78;100.00
5988;BME280;3021;51.000;6.980;2023-01-26T12:15:20;66491.72;;;1.75;100.00
5988;BME280;3021;51.000;6.980;2023-01-26T12:17:59;66498.03;;;1.81;100.00
5988;BME280;3021;51.000;6.980;2023-01-26T12:25:56;66456.75;;;1.44;100.00
5988;BME280;3021;51.000;6.980;2023-01-26T12:28:27;66441.84;;;1.30;100.00
5988;BME280;3021;51.000;6.980;2023-01-26T12:31:11;66429.81;;;1.19;100.00
5988;BME280;3021;51.000;6.980;2023-01-26T12:33:37;66419.09;;;1.12;100.00
5988;BME280;3021;51.000;6.980;2023-01-26T12:38:54;66441.84;;;1.30;100.00
5988;BME280;3021;51.000;6.980;2023-01-26T12:44:41;66461.91;;;1.48;100.00
5988;BME280;3021;51.000;6.980;2023-01-26T12:47:15;66471.81;;;1.60;100.00
5988;BME280;3021;51.000;6.980;2023-01-26T12:55:15;66491.72;;;1.75;100.00
5988;BME280;3021;51.000;6.980;2023-01-26T12:57:53;66502.06;;;1.84;100.00
5988;BME280;3021;51.000;6.980;2023-01-26T13:00:28;66506.47;;;1.86;100.00
5988;BME280;3021;51.000;6.980;2023-01-26T13:03:19;66513.34;;;1.92;100.00
5988;BME280;3021;51.000;6.980;2023-01-26T13:06:02;66524.25;;;2.02;100.00
5988;BME280;3021;51.000;6.980;2023-01-26T13:09:21;66524.97;;;2.05;100.00
5988;BME280;3021;51.000;6.980;2023-01-26T13:14:32;66547.34;;;2.25;100.00
5988;BME280;3021;51.000;6.980;2023-01-26T13:22:37;66550.78;;;2.28;100.00
5988;BME280;3021;51.000;6.980;2023-01-26T13:25:17;66546.19;;;2.24;100.00
5988;BME280;3021;51.000;6.980;2023-01-26T13:28:16;66543.91;;;2.22;100.00
5988;BME280;3021;51.000;6.980;2023-01-26T13:30:43;66541.59;;;2.20;100.00
5988;BME280;3021;51.000;6.980;2023-01-26T13:33:24;66542.03;;;2.18;100.00
5988;BME280;3021;51.000;6.980;2023-01-26T13:35:51;66525.97;;;2.03;100.00
5988;BME280;3021;51.000;6.980;2023-01-26T13:38:37;66518.66;;;1.99;100.00
5988;BME280;3021;51.000;6.980;2023-01-26T13:41:17;66526.69;;;2.06;100.00
5988;BME280;3021;51.000;6.980;2023-01-26T13:44:03;66517.34;;;1.96;100.00
5988;BME280;3021;51.000;6.980;2023-01-26T13:46:35;66501.88;;;1.82;100.00
5988;BME280;3021;51.000;6.980;2023-01-26T13:49:02;66503.75;;;1.86;100.00
5988;BME280;3021;51.000;6.980;2023-01-26T13:51:30;66505.47;;;1.87;100.00
5988;BME280;3021;51.000;6.980;2023-01-26T13:54:05;66518.09;;;1.99;100.00
5988;BME280;3021;51.000;6.980;2023-01-26T13:59:14;66523.81;;;2.04;100.00
5988;BME280;3021;51.000;6.980;2023-01-26T14:01:48;66524.81;;;2.02;100.00
5988;BME280;3021;51.000;6.980;2023-01-26T14:04:30;66523.66;;;2.01;100.00
5988;BME280;3021;51.000;6.980;2023-01-26T14:09:29;66540.88;;;2.17;100.00
5988;BME280;3021;51.000;6.980;2023-01-26T14:11:58;66538.16;;;2.17;100.00
5988;BME280;3021;51.000;6.980;2023-01-26T14:14:33;66546.44;;;2.19;100.00
5988;BME280;3021;51.000;6.980;2023-01-26T14:16:58;66543.31;;;2.21;100.00
5988;BME280;3021;51.000;6.980;2023-01-26T14:19:25;66548.34;;;2.23;100.00
5988;BME280;3021;51.000;6.980;2023-01-26T14:21:54;66545.06;;;2.23;100.00
5988;BME280;3021;51.000;6.980;2023-01-26T14:26:51;66541.75;;;2.22;100.00
5988;BME280;3021;51.000;6.980;2023-01-26T14:29:27;66560.38;;;2.34;100.00
5988;BME280;3021;51.000;6.980;2023-01-26T14:31:57;66549.63;;;2.27;100.00
5988;BME280;3021;51.000;6.980;2023-01-26T14:34:27;66550.78;;;2.28;100.00
5988;BME280;3021;51.000;6.980;2023-01-26T14:37:07;66552.09;;;2.32;100.00
5988;BME280;3021;51.000;6.980;2023-01-26T14:39:36;66557.66;;;2.34;100.00
5988;BME280;3021;51.000;6.980;2023-01-26T14:42:02;66561.13;;;2.37;100.00
5988;BME280;3021;51.000;6.980;2023-01-26T14:44:28;66558.81;;;2.35;100.00
5988;BME280;3021;51.000;6.980;2023-01-26T14:47:15;66564.97;;;2.38;100.00
5988;BME280;3021;51.000;6.980;2023-01-26T14:54:43;66578.72;;;2.51;100.00
5988;BME280;3021;51.000;6.980;2023-01-26T14:57:15;66579.47;;;2.54;100.00